Time;durP1;ratioP1;P1;durP2;ratioP2;P2;SDS_P1;SDS_P2;PMS_P1;PMS_P2;Temp;Humidity;BMP_temperature;BMP_pressure;BME280_temperature;BME280_humidity;BME280_pressure;Samples;Min_cycle;Max_cycle;Signal;HPM_P1;HPM_P2
2022/05/13 00:01:08;;;;;;;7.38;6.78;;;;;;;17.44;100.00;98743.94;5001168;28;20042;-61
2022/05/13 00:03:34;;;;;;;6.75;6.15;;;;;;;17.40;100.00;98742.41;5000214;28;20029;-60
2022/05/13 00:06:00;;;;;;;8.18;6.97;;;;;;;17.36;100.00;98728.72;5001788;28;20427;-60
2022/05/13 00:08:26;;;;;;;9.32;8.05;;;;;;;17.40;100.00;98732.03;5003341;28;20100;-60
2022/05/13 00:10:52;;;;;;;7.72;6.95;;;;;;;17.33;100.00;98727.13;5004825;28;20034;-60
2022/05/13 00:13:17;;;;;;;8.90;7.22;;;;;;;17.33;100.00;98729.72;4999214;28;20096;-61
2022/05/13 00:15:44;;;;;;;10.50;7.15;;;;;;;17.44;100.00;98725.81;5000663;28;20485;-59
2022/05/13 00:18:10;;;;;;;8.90;8.07;;;;;;;17.49;100.00;98727.25;5002953;28;20022;-60
2022/05/13 00:20:37;;;;;;;8.93;8.13;;;;;;;17.52;100.00;98736.66;4999860;28;20089;-60
2022/05/13 00:23:03;;;;;;;9.15;8.20;;;;;;;17.52;100.00;98744.44;5000428;28;20439;-60
2022/05/13 00:25:31;;;;;;;10.18;8.95;;;;;;;17.60;100.00;98744.97;4998961;28;20502;-60
2022/05/13 00:27:59;;;;;;;7.95;7.15;;;;;;;17.55;100.00;98746.88;5002864;28;20113;-58
2022/05/13 00:30:25;;;;;;;8.75;7.60;;;;;;;17.51;100.00;98747.94;4999983;28;20034;-61
2022/05/13 00:32:51;;;;;;;8.20;7.40;;;;;;;17.45;100.00;98743.00;4999635;28;20029;-61
2022/05/13 00:35:19;;;;;;;8.68;7.78;;;;;;;17.49;100.00;98752.34;5002469;28;20481;-60
2022/05/13 00:37:44;;;;;;;8.93;7.72;;;;;;;17.55;100.00;98763.28;5003562;28;20026;-61
2022/05/13 00:40:11;;;;;;;9.65;8.65;;;;;;;17.68;100.00;98782.59;5000092;28;20504;-60
2022/05/13 00:42:36;;;;;;;9.43;8.48;;;;;;;17.84;100.00;98839.81;4999784;28;20112;-60
2022/05/13 00:45:02;;;;;;;8.30;7.50;;;;;;;17.87;100.00;98842.25;5002363;28;20154;-60
2022/05/13 00:47:28;;;;;;;8.85;7.90;;;;;;;17.85;100.00;98836.31;5003850;28;20472;-60
2022/05/13 00:49:55;;;;;;;7.50;6.78;;;;;;;17.88;100.00;98841.34;4997395;28;20526;-60
2022/05/13 00:52:22;;;;;;;8.02;7.00;;;;;;;17.83;100.00;98845.91;4999141;28;20037;-61
2022/05/13 00:54:47;;;;;;;7.80;7.10;;;;;;;18.03;100.00;98856.22;5003836;28;20121;-59
2022/05/13 00:57:14;;;;;;;9.30;6.25;;;;;;;18.24;100.00;98886.41;5002224;28;20044;-60
2022/05/13 00:59:43;;;;;;;6.07;5.55;;;;;;;18.53;100.00;98908.44;4995754;28;20144;-61
2022/05/13 01:02:09;;;;;;;6.25;5.65;;;;;;;18.58;100.00;98916.88;4999309;28;20057;-60
2022/05/13 01:04:38;;;;;;;5.28;4.85;;;;;;;18.63;100.00;98924.41;4997270;28;20164;-60
2022/05/13 01:07:08;;;;;;;5.15;4.47;;;;;;;18.56;100.00;98925.63;5000847;28;20519;-60
2022/05/13 01:09:38;;;;;;;4.75;4.40;;;;;;;18.52;100.00;98929.25;4999175;28;20030;-60
2022/05/13 01:12:08;;;;;;;4.43;4.03;;;;;;;18.50;100.00;98938.88;5000067;28;20033;-60
2022/05/13 01:14:38;;;;;;;7.65;3.83;;;;;;;18.57;100.00;98953.28;5000513;28;20428;-60
2022/05/13 01:20:01;;;;;;;7.32;4.18;;;;;;;18.19;100.00;98967.97;4998982;28;20092;-60
2022/05/13 01:22:27;;;;;;;5.65;4.18;;;;;;;17.97;100.00;98965.47;5001917;28;20034;-60
2022/05/13 01:24:52;;;;;;;6.82;4.68;;;;;;;17.83;100.00;98970.41;5000125;28;20080;-60
2022/05/13 01:27:17;;;;;;;4.88;4.45;;;;;;;17.64;100.00;98969.50;4995683;28;20464;-60
2022/05/13 01:29:43;;;;;;;5.07;4.50;;;;;;;17.48;100.00;98971.88;4995222;28;20041;-59
2022/05/13 01:32:08;;;;;;;5.75;3.92;;;;;;;17.34;100.00;98974.19;5002495;28;20032;-59
2022/05/13 01:34:34;;;;;;;4.05;3.65;;;;;;;17.27;100.00;98976.16;5000588;28;20582;-59
2022/05/13 01:36:59;;;;;;;4.45;4.13;;;;;;;17.29;100.00;98970.91;4996579;28;20477;-60
2022/05/13 01:39:25;;;;;;;3.88;3.53;;;;;;;17.24;100.00;98968.50;4996266;28;20048;-60
2022/05/13 01:41:50;;;;;;;4.82;4.30;;;;;;;17.30;100.00;98970.03;4986743;28;20030;-60
2022/05/13 01:44:15;;;;;;;5.22;3.78;;;;;;;17.16;100.00;98970.56;4996755;28;20037;-60
2022/05/13 01:46:41;;;;;;;5.38;3.85;;;;;;;17.25;100.00;98970.22;4997267;28;20084;-60
2022/05/13 01:49:06;;;;;;;3.95;3.65;;;;;;;17.25;100.00;98979.72;4999206;28;20033;-60
2022/05/13 01:51:32;;;;;;;4.13;3.72;;;;;;;17.13;100.00;98983.66;4999902;28;20029;-60
2022/05/13 01:53:57;;;;;;;4.53;3.67;;;;;;;17.17;100.00;98969.69;4996707;28;20853;-60
2022/05/13 01:56:23;;;;;;;5.55;3.97;;;;;;;17.02;100.00;98970.28;4996809;28;20493;-60
2022/05/13 01:58:48;;;;;;;4.07;3.78;;;;;;;16.89;100.00;98954.38;4999902;28;20089;-61
2022/05/13 02:01:13;;;;;;;4.38;3.50;;;;;;;16.73;100.00;98963.66;5000601;28;20073;-60
2022/05/13 02:03:45;;;;;;;4.10;3.63;;;;;;;16.61;100.00;98955.50;4995414;28;20045;-60
2022/05/13 02:06:18;;;;;;;3.83;3.42;;;;;;;16.50;100.00;98953.31;4995286;28;20367;-60
2022/05/13 02:08:44;;;;;;;3.45;3.20;;;;;;;16.33;100.00;98940.16;4997688;28;20044;-60
2022/05/13 02:11:10;;;;;;;4.32;4.00;;;;;;;16.31;100.00;98945.38;5002417;28;20026;-60
2022/05/13 02:13:36;;;;;;;6.15;3.95;;;;;;;16.15;100.00;98940.81;4995614;28;20041;-60
2022/05/13 02:16:03;;;;;;;4.07;3.78;;;;;;;16.06;100.00;98930.81;4951177;28;1395844;-58
2022/05/13 02:18:29;;;;;;;5.68;4.40;;;;;;;15.97;100.00;98916.47;4999497;28;20049;-60
2022/05/13 02:20:55;;;;;;;9.68;4.25;;;;;;;15.84;100.00;98917.78;4999731;28;20546;-60
2022/05/13 02:23:21;;;;;;;5.60;5.10;;;;;;;15.75;100.00;98911.22;4998822;28;20026;-59
2022/05/13 02:25:49;;;;;;;6.05;4.40;;;;;;;15.63;100.00;98906.47;4996764;28;20037;-57
2022/05/13 02:28:14;;;;;;;4.45;4.05;;;;;;;15.44;100.00;98890.75;4997564;28;20083;-56
2022/05/13 02:30:40;;;;;;;4.95;4.45;;;;;;;15.38;100.00;98897.84;4999741;28;20042;-59
2022/05/13 02:33:06;;;;;;;5.00;4.60;;;;;;;15.30;100.00;98881.75;4998508;28;20034;-51
2022/05/13 02:35:33;;;;;;;4.18;3.88;;;;;;;15.38;100.00;98880.59;4997259;28;20136;-57
2022/05/13 02:37:59;;;;;;;4.93;4.40;;;;;;;15.37;100.00;98878.91;5000319;28;20021;-57
2022/05/13 02:43:09;;;;;;;6.80;4.37;;;;;;;15.25;100.00;98874.16;4997037;28;20037;-54
2022/05/13 02:45:34;;;;;;;4.95;4.47;;;;;;;15.23;100.00;98881.13;4995456;28;20073;-56
2022/05/13 02:48:00;;;;;;;6.22;4.43;;;;;;;15.31;100.00;98886.88;4997736;28;20034;-54
2022/05/13 02:50:25;;;;;;;6.22;4.43;;;;;;;15.33;100.00;98892.81;4999101;28;20033;-55
2022/05/13 02:52:51;;;;;;;4.20;3.75;;;;;;;15.41;100.00;98890.81;4996601;28;20091;-56
2022/05/13 02:55:19;;;;;;;4.80;4.28;;;;;;;15.33;100.00;98890.25;4997901;28;20029;-57
2022/05/13 02:57:45;;;;;;;3.85;3.55;;;;;;;15.39;100.00;98887.47;4996582;28;20120;-53
2022/05/13 03:00:11;;;;;;;5.00;3.85;;;;;;;15.40;100.00;98871.03;4997147;28;20511;-56
2022/05/13 03:02:37;;;;;;;4.55;4.03;;;;;;;15.35;100.00;98867.81;4997043;28;20062;-56
2022/05/13 03:05:03;;;;;;;5.22;4.57;;;;;;;15.41;100.00;98867.56;4998901;28;20567;-56
2022/05/13 03:07:28;;;;;;;9.48;3.90;;;;;;;15.53;100.00;98880.09;5000755;28;20631;-58
2022/05/13 03:09:54;;;;;;;5.10;4.28;;;;;;;15.48;100.00;98883.72;4998810;28;20038;-54
2022/05/13 03:12:19;;;;;;;7.45;4.82;;;;;;;15.41;100.00;98884.81;4997955;28;20037;-59
2022/05/13 03:14:45;;;;;;;6.63;4.97;;;;;;;15.40;100.00;98885.72;5000232;28;20533;-58
2022/05/13 03:17:10;;;;;;;5.28;4.97;;;;;;;15.37;100.00;98878.91;4999882;28;20053;-60
2022/05/13 03:19:36;;;;;;;6.50;5.05;;;;;;;15.41;100.00;98884.81;5001398;28;20034;-58
2022/05/13 03:22:02;;;;;;;6.07;5.30;;;;;;;15.46;100.00;98891.53;5000014;28;20033;-59
2022/05/13 03:24:28;;;;;;;6.85;4.65;;;;;;;15.52;100.00;98893.09;5003077;28;20584;-59
2022/05/13 03:26:53;;;;;;;5.85;5.25;;;;;;;15.58;100.00;98892.00;5005130;28;20029;-59
2022/05/13 03:29:20;;;;;;;5.57;4.53;;;;;;;15.53;100.00;98890.44;5001022;28;20116;-58
2022/05/13 03:31:46;;;;;;;6.32;5.20;;;;;;;15.55;100.00;98887.81;4999344;28;20117;-57
2022/05/13 03:34:11;;;;;;;5.90;4.95;;;;;;;15.59;100.00;98885.94;4999836;28;20089;-57
2022/05/13 03:36:37;;;;;;;5.18;4.72;;;;;;;15.54;100.00;98875.78;5002544;28;20036;-56
2022/05/13 03:39:02;;;;;;;5.45;4.95;;;;;;;15.56;100.00;98884.34;4997787;28;20038;-57
2022/05/13 03:41:27;;;;;;;5.32;4.57;;;;;;;15.59;100.00;98886.78;4997692;28;20037;-57
2022/05/13 03:43:53;;;;;;;6.32;5.82;;;;;;;15.55;100.00;98887.81;4997868;28;20342;-57
2022/05/13 03:46:18;;;;;;;6.10;5.28;;;;;;;15.47;100.00;98893.22;4998930;28;20030;-56
2022/05/13 03:48:44;;;;;;;5.25;4.75;;;;;;;15.46;100.00;98886.34;5001161;28;20385;-57
2022/05/13 03:51:09;;;;;;;6.10;5.50;;;;;;;15.42;100.00;98886.50;5000234;28;20033;-58
2022/05/13 03:53:34;;;;;;;7.88;5.07;;;;;;;15.41;100.00;98885.66;5002087;28;20381;-55
2022/05/13 03:56:00;;;;;;;6.03;5.50;;;;;;;15.39;100.00;98889.19;4999608;28;20045;-58
2022/05/13 03:58:25;;;;;;;4.95;4.55;;;;;;;15.43;100.00;98890.78;4999488;28;20045;-56
2022/05/13 04:00:51;;;;;;;5.05;4.53;;;;;;;15.53;100.00;98884.44;5001206;28;20033;-58
2022/05/13 04:03:17;;;;;;;5.65;4.47;;;;;;;15.50;100.00;98881.94;5001849;28;20034;-58
2022/05/13 04:11:12;;;;;;;;;;;;;;;15.50;100.00;98879.38;4999703;28;20145;-57
2022/05/13 04:16:22;;;;;;;6.60;5.30;;;;;;;15.46;100.00;98877.75;5000049;28;20919;-56
2022/05/13 04:18:49;;;;;;;6.53;5.93;;;;;;;15.55;100.00;98874.88;4998984;28;20635;-59
2022/05/13 04:21:24;;;;;;;6.40;5.68;;;;;;;15.53;100.00;98868.94;5001442;28;20396;-58
2022/05/13 04:23:52;;;;;;;6.95;5.47;;;;;;;15.57;100.00;98870.53;4998735;28;20352;-57
2022/05/13 04:26:19;;;;;;;7.28;5.30;;;;;;;15.58;100.00;98863.59;4998125;28;20088;-57
2022/05/13 04:28:47;;;;;;;5.80;4.60;;;;;;;15.61;100.00;98866.06;5000759;28;20069;-59
2022/05/13 04:31:14;;;;;;;5.93;5.43;;;;;;;15.57;100.00;98873.09;5005263;28;20069;-55
2022/05/13 04:33:40;;;;;;;6.95;5.35;;;;;;;15.55;100.00;98872.28;5002079;28;20030;-56
2022/05/13 04:36:06;;;;;;;5.07;4.57;;;;;;;15.58;100.00;98877.34;4998351;28;20437;-59
2022/05/13 04:38:33;;;;;;;8.23;5.63;;;;;;;15.60;100.00;98875.56;4999289;28;20026;-55
2022/05/13 04:42:49;;;;;;;5.85;5.25;;;;;;;15.56;100.00;98871.41;4999575;28;20087;-56
2022/05/13 04:43:44;;;;;;;6.10;5.47;;;;;;;15.65;100.00;98883.16;4997899;28;20037;-57
2022/05/13 04:46:10;;;;;;;8.38;5.50;;;;;;;15.69;100.00;98890.75;5000207;28;20034;-55
2022/05/13 04:48:35;;;;;;;6.10;5.60;;;;;;;15.66;100.00;98877.09;4999055;28;20034;-59
2022/05/13 04:51:01;;;;;;;5.75;5.03;;;;;;;15.73;100.00;98891.50;4980529;28;20033;-61
2022/05/13 04:53:32;;;;;;;8.13;6.05;;;;;;;15.77;100.00;98895.66;4998359;28;20037;-62
2022/05/13 04:55:59;;;;;;;9.35;5.90;;;;;;;15.80;100.00;98895.53;4996969;28;20029;-62
2022/05/13 04:58:26;;;;;;;6.43;5.70;;;;;;;15.79;100.00;98892.09;4998587;28;20090;-62
2022/05/13 05:00:53;;;;;;;7.10;6.43;;;;;;;15.82;100.00;98898.91;4998877;28;20467;-62
2022/05/13 05:03:20;;;;;;;6.20;5.15;;;;;;;15.84;100.00;98897.94;4997833;28;20434;-57
2022/05/13 05:05:46;;;;;;;7.18;5.20;;;;;;;15.87;100.00;98908.19;5000492;28;20061;-62
2022/05/13 05:08:13;;;;;;;5.53;5.03;;;;;;;15.90;100.00;98900.34;4999233;28;20499;-57
2022/05/13 05:10:40;;;;;;;6.95;6.35;;;;;;;15.94;100.00;98895.88;4996423;28;20541;-62
2022/05/13 05:13:08;;;;;;;8.70;6.13;;;;;;;15.99;100.00;98896.56;5000739;28;20124;-63
2022/05/13 05:15:35;;;;;;;9.23;6.10;;;;;;;15.95;100.00;98900.97;4998469;28;20384;-63
2022/05/13 05:18:01;;;;;;;5.65;5.10;;;;;;;15.97;100.00;98904.38;5000679;28;20112;-62
2022/05/13 05:20:27;;;;;;;6.32;5.82;;;;;;;16.00;100.00;98906.00;5002283;28;20092;-63
2022/05/13 05:22:53;;;;;;;6.18;4.78;;;;;;;16.04;100.00;98902.38;4997266;28;20038;-62
2022/05/13 05:25:21;;;;;;;4.60;4.20;;;;;;;16.12;100.00;98904.72;4999665;28;20111;-62
2022/05/13 05:27:47;;;;;;;4.97;4.57;;;;;;;16.15;100.00;98909.78;4999732;28;20030;-62
2022/05/13 05:30:14;;;;;;;8.30;5.05;;;;;;;16.28;100.00;98911.84;5000323;28;20033;-62
2022/05/13 05:32:41;;;;;;;5.80;5.30;;;;;;;16.31;100.00;98909.16;4997831;28;20069;-64
2022/05/13 05:35:10;;;;;;;5.50;5.00;;;;;;;16.36;100.00;98908.97;4996371;28;20038;-61
2022/05/13 05:37:36;;;;;;;4.97;4.68;;;;;;;16.39;100.00;98904.53;4998406;28;20140;-63
2022/05/13 05:40:03;;;;;;;4.85;4.47;;;;;;;16.51;100.00;98907.56;4996445;28;20064;-64
2022/05/13 05:42:29;;;;;;;4.72;4.43;;;;;;;16.55;100.00;98912.53;4998068;28;20432;-63
2022/05/13 05:44:55;;;;;;;5.68;5.10;;;;;;;16.60;100.00;98912.38;4999962;28;20725;-63
2022/05/13 05:47:22;;;;;;;4.50;4.13;;;;;;;16.63;100.00;98914.88;4996701;28;20036;-63
2022/05/13 05:49:47;;;;;;;5.93;5.43;;;;;;;16.73;100.00;98921.38;4997949;28;20029;-63
2022/05/13 05:52:13;;;;;;;5.50;4.97;;;;;;;16.85;100.00;98918.28;4997933;28;20174;-62
2022/05/13 05:57:23;;;;;;;5.50;5.00;;;;;;;17.07;100.00;98928.63;5000313;28;20404;-62
2022/05/13 05:59:49;;;;;;;5.38;4.88;;;;;;;17.10;100.00;98929.34;4996496;28;20433;-63
2022/05/13 06:02:14;;;;;;;5.93;5.43;;;;;;;17.16;100.00;98933.44;4999333;28;20026;-62
2022/05/13 06:04:40;;;;;;;6.05;5.55;;;;;;;17.26;100.00;98940.81;5001230;28;20029;-62
2022/05/13 06:07:09;;;;;;;5.72;5.15;;;;;;;17.40;100.00;98935.03;5000705;28;20053;-62
2022/05/13 06:09:36;;;;;;;6.72;5.40;;;;;;;17.53;100.00;98943.13;4997687;28;20503;-61
2022/05/13 06:12:02;;;;;;;5.25;4.75;;;;;;;17.60;100.00;98942.88;4999445;28;20045;-62
2022/05/13 06:14:27;;;;;;;5.43;4.93;;;;;;;17.64;100.00;98935.78;5001470;28;20026;-63
2022/05/13 06:16:53;;;;;;;5.80;5.03;;;;;;;17.70;100.00;98940.69;4997429;28;20065;-63
2022/05/13 06:19:19;;;;;;;4.82;4.43;;;;;;;17.73;100.00;98941.44;4997663;28;20040;-63
2022/05/13 06:21:45;;;;;;;6.22;4.85;;;;;;;17.69;100.00;98936.44;4995820;28;20122;-64
2022/05/13 06:24:11;;;;;;;5.25;4.75;;;;;;;17.69;100.00;98931.25;5001628;28;20025;-63
2022/05/13 06:26:36;;;;;;;5.13;4.72;;;;;;;17.71;100.00;98938.06;5001132;28;20523;-63
2022/05/13 06:29:04;;;;;;;4.55;4.25;;;;;;;17.77;100.00;98943.00;4997870;28;20026;-62
2022/05/13 06:31:29;;;;;;;5.57;4.43;;;;;;;17.82;100.00;98944.53;4998465;28;20144;-63
2022/05/13 06:33:55;;;;;;;5.88;4.70;;;;;;;17.85;100.00;98941.81;5000636;28;20941;-63
2022/05/13 06:36:21;;;;;;;5.20;4.72;;;;;;;17.98;100.00;98941.22;4996203;28;20084;-62
2022/05/13 06:38:47;;;;;;;5.03;4.53;;;;;;;18.12;100.00;98936.22;4997445;28;20565;-63
2022/05/13 06:41:13;;;;;;;5.45;4.88;;;;;;;18.22;100.00;98945.31;4998415;28;20061;-62
2022/05/13 06:43:38;;;;;;;5.18;4.78;;;;;;;18.16;100.00;98947.34;4997342;28;20030;-61
2022/05/13 06:46:04;;;;;;;5.88;4.53;;;;;;;18.29;100.00;98942.44;4988643;28;20341;-63
2022/05/13 06:48:29;;;;;;;5.68;4.63;;;;;;;18.42;100.00;98949.59;4996978;28;20506;-63
2022/05/13 06:50:55;;;;;;;7.50;4.50;;;;;;;18.43;100.00;98950.44;5001887;28;20087;-64
2022/05/13 06:53:21;;;;;;;4.85;4.45;;;;;;;18.51;100.00;98954.38;5002354;28;20405;-64
2022/05/13 06:55:47;;;;;;;5.10;4.60;;;;;;;18.63;100.00;98955.56;5001464;28;20033;-64
2022/05/13 06:58:14;;;;;;;5.05;4.65;;;;;;;18.73;100.00;98959.44;5003159;28;20472;-64
2022/05/13 07:00:40;;;;;;;7.07;4.60;;;;;;;18.78;100.00;98952.28;5003607;28;20595;-63
2022/05/13 07:03:07;;;;;;;5.15;4.75;;;;;;;18.60;100.00;98956.56;5000943;28;20671;-63
2022/05/13 07:05:33;;;;;;;4.93;4.32;;;;;;;18.47;100.00;98970.16;5002182;28;20033;-63
2022/05/13 07:07:59;;;;;;;6.47;4.18;;;;;;;18.44;100.00;98973.75;4985479;28;20029;-64
2022/05/13 07:10:25;;;;;;;5.10;4.70;;;;;;;18.43;100.00;98973.81;5006329;28;20627;-65
2022/05/13 07:12:50;;;;;;;4.65;4.35;;;;;;;18.35;100.00;98968.97;5001419;28;20444;-64
2022/05/13 07:15:18;;;;;;;4.97;4.57;;;;;;;18.26;100.00;98972.81;5000544;28;20088;-63
2022/05/13 07:17:44;;;;;;;5.32;4.47;;;;;;;18.25;100.00;98980.66;5002813;28;20045;-63
2022/05/13 07:20:11;;;;;;;5.13;4.50;;;;;;;18.14;100.00;98980.28;5004934;28;20025;-64
2022/05/13 07:22:36;;;;;;;7.43;5.05;;;;;;;17.97;100.00;98981.03;5003226;28;20034;-63
2022/05/13 07:25:04;;;;;;;4.88;4.57;;;;;;;17.88;100.00;98986.63;5000178;28;20072;-63
2022/05/13 07:27:30;;;;;;;4.88;4.47;;;;;;;17.78;100.00;98980.97;5002315;28;20325;-63
2022/05/13 07:29:55;;;;;;;5.10;4.70;;;;;;;17.70;100.00;98985.63;5003070;28;20041;-62
2022/05/13 07:32:21;;;;;;;5.93;5.03;;;;;;;17.51;100.00;98986.44;4999837;28;20041;-64
2022/05/13 07:34:46;;;;;;;6.03;5.00;;;;;;;17.29;100.00;98995.09;5000399;28;20034;-62
2022/05/13 07:37:12;;;;;;;5.45;4.38;;;;;;;17.14;100.00;98987.09;5003481;28;20036;-63
2022/05/13 07:42:21;;;;;;;4.82;4.45;;;;;;;16.86;100.00;98975.22;5001408;28;20048;-62
2022/05/13 07:44:47;;;;;;;5.07;4.32;;;;;;;16.83;100.00;98984.84;5002045;28;20037;-63
2022/05/13 07:47:14;;;;;;;6.00;4.93;;;;;;;16.78;100.00;98994.53;5003071;28;20494;-62
2022/05/13 07:49:42;;;;;;;5.60;5.10;;;;;;;16.70;100.00;98999.16;5002998;28;20037;-61
2022/05/13 07:52:07;;;;;;;6.53;4.90;;;;;;;16.65;100.00;98998.50;4998901;28;20113;-62
2022/05/13 07:54:33;;;;;;;6.18;5.60;;;;;;;16.60;100.00;98997.81;5000809;28;20037;-62
2022/05/13 07:56:59;;;;;;;5.95;5.25;;;;;;;16.60;100.00;99001.25;4990371;28;20473;-62
2022/05/13 07:59:26;;;;;;;7.10;6.50;;;;;;;16.72;100.00;98999.97;5001925;28;20038;-63
2022/05/13 08:01:51;;;;;;;5.20;4.70;;;;;;;16.75;100.00;98992.94;5000085;28;20030;-62
2022/05/13 08:04:17;;;;;;;5.18;4.68;;;;;;;16.67;100.00;98988.94;5001447;28;20038;-62
2022/05/13 08:06:44;;;;;;;5.38;4.85;;;;;;;16.64;100.00;98989.03;5004106;28;20037;-63
2022/05/13 08:09:10;;;;;;;5.22;4.60;;;;;;;16.74;100.00;98990.38;5001237;28;20345;-62
2022/05/13 08:11:36;;;;;;;6.40;5.10;;;;;;;16.70;100.00;98988.81;5000641;28;20173;-62
2022/05/13 08:14:01;;;;;;;6.10;4.50;;;;;;;16.84;100.00;98982.22;5004088;28;20112;-63
2022/05/13 08:16:29;;;;;;;5.30;4.53;;;;;;;16.98;100.00;98992.03;5003020;28;20412;-62
2022/05/13 08:18:56;;;;;;;5.05;4.63;;;;;;;17.02;100.00;98993.59;5001369;28;20034;-61
2022/05/13 08:21:21;;;;;;;5.45;4.93;;;;;;;17.09;100.00;98994.22;4999133;28;20318;-61
2022/05/13 08:23:47;;;;;;;4.90;4.28;;;;;;;17.16;100.00;98985.28;5002414;28;20041;-61
2022/05/13 08:26:13;;;;;;;4.97;4.57;;;;;;;17.24;100.00;98984.06;5004229;28;20026;-63
2022/05/13 08:28:40;;;;;;;5.35;4.88;;;;;;;17.38;100.00;98980.91;5000287;28;20034;-62
2022/05/13 08:31:06;;;;;;;5.53;4.82;;;;;;;17.60;100.00;98983.50;5000481;28;20687;-61
2022/05/13 08:33:31;;;;;;;4.72;4.32;;;;;;;17.75;100.00;98980.25;5004617;28;20534;-62
2022/05/13 08:35:59;;;;;;;5.07;4.35;;;;;;;18.07;100.00;98971.09;5002277;28;20377;-63
2022/05/13 08:38:29;;;;;;;5.10;4.70;;;;;;;18.13;100.00;98963.88;4999652;28;20034;-64
2022/05/13 08:41:24;;;;;;;4.78;4.38;;;;;;;18.44;100.00;98965.94;5000173;28;20500;-62
2022/05/13 08:44:00;;;;;;;5.25;4.85;;;;;;;18.72;100.00;98962.94;5001714;28;20046;-62
2022/05/13 08:46:32;;;;;;;5.25;4.85;;;;;;;18.91;100.00;98971.59;5002493;28;20034;-61
2022/05/13 08:49:10;;;;;;;5.25;4.75;;;;;;;19.07;100.00;98977.72;4982138;28;20550;-61
2022/05/13 08:53:06;;;;;;;5.05;4.30;;;;;;;19.16;100.00;98966.91;4995318;28;20061;-61
2022/05/13 08:54:58;;;;;;;6.90;4.28;;;;;;;19.01;100.00;98966.78;5001537;28;20052;-62
2022/05/13 08:57:28;;;;;;;6.65;4.88;;;;;;;19.02;100.00;98971.06;5000865;28;20475;-62
2022/05/13 09:00:08;;;;;;;6.38;5.78;;;;;;;19.06;100.00;98975.19;4998244;28;20073;-61
2022/05/13 09:02:37;;;;;;;5.50;4.85;;;;;;;19.09;100.00;98978.50;5003714;28;20096;-62
2022/05/13 09:05:25;;;;;;;6.10;5.50;;;;;;;18.95;100.00;98985.25;4983758;28;20492;-62
2022/05/13 09:07:51;;;;;;;6.10;5.50;;;;;;;18.98;100.00;98977.31;4998037;28;20035;-62
2022/05/13 09:10:17;;;;;;;7.22;5.78;;;;;;;19.01;100.00;98972.81;5000632;28;20042;-62
2022/05/13 09:13:10;;;;;;;7.15;6.45;;;;;;;19.05;100.00;98971.75;5000810;28;20044;-63
2022/05/13 09:15:48;;;;;;;11.52;5.68;;;;;;;19.02;100.00;98968.47;5000424;28;20530;-62
2022/05/13 09:18:16;;;;;;;6.55;6.00;;;;;;;19.12;100.00;98969.72;4999156;28;20026;-63
2022/05/13 09:20:56;;;;;;;7.53;5.82;;;;;;;19.17;100.00;98967.75;5003877;28;20057;-63
2022/05/13 09:23:22;;;;;;;6.57;5.97;;;;;;;19.25;100.00;98956.97;5001313;28;20034;-63
2022/05/13 09:26:05;;;;;;;5.75;4.95;;;;;;;19.38;100.00;98952.84;4999455;28;20057;-63
2022/05/13 09:28:34;;;;;;;5.45;4.80;;;;;;;19.49;100.00;98947.97;5000541;28;20360;-62
2022/05/13 09:31:29;;;;;;;6.25;5.15;;;;;;;19.55;100.00;98952.88;5002617;28;20249;-63
2022/05/13 09:33:54;;;;;;;5.50;4.97;;;;;;;19.50;100.00;98949.66;4995877;28;20038;-62
2022/05/13 09:36:21;;;;;;;5.07;4.63;;;;;;;19.52;100.00;98943.44;4999158;28;20044;-63
2022/05/13 09:39:14;;;;;;;4.93;4.63;;;;;;;19.61;100.00;98947.34;4999941;28;20030;-63
2022/05/13 09:41:40;;;;;;;4.47;4.07;;;;;;;19.71;100.00;98947.75;5000559;28;20193;-63
2022/05/13 09:44:08;;;;;;;4.65;4.35;;;;;;;19.91;100.00;98951.00;4998414;28;20520;-63
2022/05/13 09:46:38;;;;;;;7.22;5.07;;;;;;;20.01;100.00;98949.63;4998736;28;20128;-64
2022/05/13 09:49:36;;;;;;;5.60;5.10;;;;;;;20.30;100.00;98950.72;4997615;28;20484;-62
2022/05/13 09:52:15;;;;;;;6.75;6.10;;;;;;;20.43;100.00;98946.53;4923128;29;20047;-61
2022/05/13 09:54:43;;;;;;;7.47;6.63;;;;;;;20.59;100.00;98938.72;4918597;29;20692;-63
2022/05/13 09:57:21;;;;;;;6.43;5.80;;;;;;;20.86;100.00;98942.41;4922675;29;20054;-63
2022/05/13 10:00:00;;;;;;;6.25;5.55;;;;;;;21.17;100.00;98935.50;4921248;29;20047;-63
2022/05/13 10:02:33;;;;;;;6.25;5.60;;;;;;;21.35;100.00;98931.81;4920127;29;20075;-63
2022/05/13 10:05:21;;;;;;;5.50;4.97;;;;;;;21.29;100.00;98932.19;4920255;29;20538;-63
2022/05/13 10:07:58;;;;;;;5.38;4.88;;;;;;;21.66;100.00;98936.09;4922546;29;20126;-64
2022/05/13 10:16:10;;;;;;;6.18;5.60;;;;;;;22.05;100.00;98930.28;4923850;29;20078;-62
2022/05/13 10:18:46;;;;;;;5.03;4.53;;;;;;;22.00;100.00;98925.34;4923748;29;20501;-61
2022/05/13 10:21:18;;;;;;;8.30;5.25;;;;;;;21.81;100.00;98915.13;4920871;29;20047;-63
2022/05/13 10:23:58;;;;;;;5.20;4.72;;;;;;;22.11;100.00;98924.69;4921949;29;20579;-63
2022/05/13 10:26:31;;;;;;;4.38;3.70;;;;;;;22.19;100.00;98914.63;4926898;29;20648;-62
2022/05/13 10:29:14;;;;;;;4.53;4.18;;;;;;;22.62;100.00;98921.44;4969531;28;20049;-62
2022/05/13 10:31:43;;;;;;;4.55;4.25;;;;;;;22.93;100.00;98920.38;5002508;28;20034;-61
2022/05/13 10:34:34;;;;;;;4.20;3.90;;;;;;;23.09;100.00;98920.19;5001771;28;20662;-61
2022/05/13 10:37:08;;;;;;;4.68;4.28;;;;;;;23.16;100.00;98911.03;5006208;28;20065;-62
2022/05/13 10:39:38;;;;;;;5.35;3.88;;;;;;;23.34;100.00;98909.78;5001592;28;20041;-62
2022/05/13 10:42:09;;;;;;;4.13;3.83;;;;;;;23.58;100.00;98908.22;5001590;28;20857;-62
2022/05/13 10:44:55;;;;;;;4.13;3.90;;;;;;;23.54;100.00;98904.13;4987226;28;20160;-62
2022/05/13 10:47:30;;;;;;;3.70;3.50;;;;;;;23.80;100.00;98901.50;5003996;28;20105;-61
2022/05/13 10:49:57;;;;;;;4.05;3.75;;;;;;;24.11;100.00;98899.28;5001770;28;20056;-61
2022/05/13 10:52:56;;;;;;;5.45;5.05;;;;;;;24.33;100.00;98896.00;5001661;28;20034;-61
2022/05/13 10:56:00;;;;;;;5.05;4.65;;;;;;;24.57;100.00;98886.38;5002367;28;20480;-62
2022/05/13 10:58:41;;;;;;;5.00;4.60;;;;;;;24.38;100.00;98891.28;4996937;28;20468;-62
2022/05/13 11:01:27;;;;;;;5.07;4.65;;;;;;;24.36;100.00;98887.94;5000740;28;20038;-64
2022/05/13 11:04:31;;;;;;;4.97;4.65;;;;;;;24.07;100.00;98887.34;4999732;28;20033;-63
2022/05/13 11:07:09;;;;;;;4.68;4.38;;;;;;;24.22;100.00;98880.22;4968046;28;20157;-63
2022/05/13 11:09:52;;;;;;;4.72;4.43;;;;;;;24.10;100.00;98894.16;4999498;28;20477;-64
2022/05/13 11:12:42;;;;;;;5.38;4.88;;;;;;;24.64;100.00;98878.09;5002402;28;20033;-63
2022/05/13 11:15:45;;;;;;;4.95;4.18;;;;;;;24.93;100.00;98867.19;5002518;28;20042;-63
2022/05/13 11:18:28;;;;;;;7.10;5.30;;;;;;;25.39;100.00;98867.22;4982037;28;20070;-64
2022/05/13 11:21:06;;;;;;;7.18;5.95;;;;;;;25.43;100.00;98871.28;4983048;28;20042;-64
2022/05/13 11:23:34;;;;;;;6.72;6.13;;;;;;;25.42;100.00;98859.09;4983260;28;20404;-62
2022/05/13 11:26:18;;;;;;;6.32;5.82;;;;;;;25.58;100.00;98844.84;4982575;28;20038;-62
2022/05/13 11:29:07;;;;;;;6.53;6.00;;;;;;;25.11;100.00;98840.53;4980143;28;20065;-63
2022/05/13 11:31:36;;;;;;;6.50;6.00;;;;;;;25.26;100.00;98844.63;4999391;28;20042;-58
2022/05/13 11:34:10;;;;;;;6.60;6.13;;;;;;;25.01;100.00;98841.22;4991007;28;20045;-60
2022/05/13 11:36:50;;;;;;;6.72;6.13;;;;;;;25.07;100.00;98839.09;4981720;28;20584;-62
2022/05/13 11:39:22;;;;;;;6.95;6.45;;;;;;;24.73;100.00;98831.06;4982114;28;20607;-61
2022/05/13 11:41:59;;;;;;;7.30;6.70;;;;;;;24.49;100.00;98825.81;4983057;28;20089;-62
2022/05/13 11:44:32;;;;;;;5.80;5.32;;;;;;;24.50;100.00;98819.63;4982178;28;20030;-61
2022/05/13 11:47:19;;;;;;;6.63;5.57;;;;;;;24.43;100.00;98823.66;4980358;28;20037;-61
2022/05/13 11:49:47;;;;;;;6.10;5.60;;;;;;;24.65;100.00;98811.59;4983339;28;20046;-62
2022/05/13 11:52:12;;;;;;;6.68;6.25;;;;;;;24.36;100.00;98817.16;4974189;28;20045;-61
2022/05/13 11:54:40;;;;;;;6.25;5.70;;;;;;;24.35;100.00;98817.28;4980327;28;20398;-61
2022/05/13 11:57:28;;;;;;;5.97;5.47;;;;;;;24.55;100.00;98808.81;4979099;28;20583;-62
2022/05/13 12:00:18;;;;;;;15.75;14.23;;;;;;;24.49;100.00;98807.47;4985144;28;20042;-62